Bountiful, UT (84010)

10:25 AM MDT on July 31, 2015 (GMT -0600)
Woodland Hills | | Change Station
CLOSE
Current Station
Personal Weather Station
Location: Bountiful, UT
Elevation: 4646 ft
Nearby Weather Stations

Elev 4646 ft 40.88 °N, 111.87 °W | Updated 12 seconds ago

Partly Cloudy
Partly Cloudy
82.2 °F
Feels Like 80 °F
N
0.0
Wind Variable Wind from WNW
Gusts 0.0 mph

Today
High -- | Low -- °F
--% Chance of Precip.
Yesterday
High -- | Low -- °F
Precip. -- in
6:22 AM 8:44 PM
Full, 100% visible
Pressure 30.09 in
Visibility 10.0 miles
Clouds Few 17000 ft
Scattered Clouds 25000 ft
Heat Index 80 °F
Dew Point 28 °F
Humidity 14%
Rainfall 0.00 in
Snow Depth Not available.
UV 4 out of 12
Pollen 6.00 out of 12
Air Quality Not available.
Flu Activity Not available.
METAR KSLC 311553Z 11004KT 10SM FEW170 SCT250 25/02 A3025 RMK AO2 SLP188 ACSL DSNT SE AND NW T02500017

More Conditions Fewer Conditions

Pressure 30.09 in
Visibility 10.0 miles
Clouds Few 17000 ft
Scattered Clouds 25000 ft
Heat Index 80 °F
Dew Point 28 °F
Humidity 14%
Rainfall 0.00 in
Snow Depth Not available.
UV 4 out of 12
Pollen 6.00 out of 12
Air Quality Not available.
Flu Activity Not available.
METAR KSLC 311553Z 11004KT 10SM FEW170 SCT250 25/02 A3025 RMK AO2 SLP188 ACSL DSNT SE AND NW T02500017

More Conditions Fewer Conditions

10-Day Weather Forecast

×

Almanac

Astronomy

Jul. 31, 2015 Rise Set
Actual Time
Civil Twilight
Nautical Twilight
Astronomical Twilight
Moon
Length of Visible Light
Length of Day
Tomorrow will be .
, % of the Moon is Illuminated

Today's Extremes

State Highs State Lows

Community

WunderPhotos

Upload Photos

1,842,690 photos uploaded!

WunderBlogs® & News

Nearby

Air Quality

  Air Quality AQ Index Pollutant
Not available.

Snow Depth

Station Depth Elevation

Earthquake Activity

City Distance Mag. Time & Date
Minimum magnitude displayed is 2.5.

Coastal Water Temperatures

Place Temperature

Stations

Nearby Weather Stations

Station Location Temp. Windchill Dew Point Humidity Wind Precip. Elev Updated Type